Time;durP1;ratioP1;P1;durP2;ratioP2;P2;SDS_P1;SDS_P2;PMS_P1;PMS_P2;Temp;Humidity;BMP_temperature;BMP_pressure;BME280_temperature;BME280_humidity;BME280_pressure;Samples;Min_cycle;Max_cycle;Signal;HPM_P1;HPM_P2
2023/06/14 00:02:16;;;;;;;;;;;;;;;15.76;41.14;95964.97;5105888;28;20239;-76
2023/06/14 00:04:43;;;;;;;;;;;;;;;15.73;41.53;95968.16;5105804;28;20156;-76
2023/06/14 00:07:09;;;;;;;;;;;;;;;15.67;41.78;95969.97;5105955;28;19956;-76
2023/06/14 00:09:35;;;;;;;;;;;;;;;15.59;41.74;95965.19;5105498;28;19976;-76
2023/06/14 00:12:01;;;;;;;;;;;;;;;15.50;42.05;95967.53;5105186;28;20003;-76
2023/06/14 00:14:26;;;;;;;;;;;;;;;15.43;41.94;95959.88;5105317;28;19955;-71
2023/06/14 00:16:53;;;;;;;;;;;;;;;15.37;42.41;95952.97;5105475;28;19951;-72
2023/06/14 00:19:19;;;;;;;;;;;;;;;15.31;42.47;95955.88;5104026;28;20241;-73
2023/06/14 00:21:45;;;;;;;;;;;;;;;15.23;42.78;95960.59;5103947;28;19946;-73
2023/06/14 00:24:11;;;;;;;;;;;;;;;15.18;43.38;95954.47;5105232;28;19975;-72
2023/06/14 00:26:37;;;;;;;;;;;;;;;15.13;43.97;95949.97;5105131;28;20235;-72
2023/06/14 00:29:03;;;;;;;;;;;;;;;15.07;43.65;95956.28;5105143;28;19957;-73
2023/06/14 00:31:29;;;;;;;;;;;;;;;15.05;43.36;95955.75;5104236;28;20122;-73
2023/06/14 00:33:55;;;;;;;;;;;;;;;15.02;43.93;95956.28;5104899;28;19957;-72
2023/06/14 00:36:20;;;;;;;;;;;;;;;14.97;44.31;95958.88;5087195;28;19966;-76
2023/06/14 00:38:46;;;;;;;;;;;;;;;14.89;43.48;95957.56;5104812;28;19987;-76
2023/06/14 00:41:12;;;;;;;;;;;;;;;14.82;44.21;95963.06;5105031;28;19963;-75
2023/06/14 00:43:38;;;;;;;;;;;;;;;14.80;44.66;95959.88;5103823;28;19941;-76
2023/06/14 00:46:04;;;;;;;;;;;;;;;14.78;44.61;95958.53;5104782;28;19961;-76
2023/06/14 00:48:31;;;;;;;;;;;;;;;14.77;44.38;95956.97;5104907;28;20008;-76
2023/06/14 00:50:57;;;;;;;;;;;;;;;14.75;43.37;95946.66;5105014;28;19952;-71
2023/06/14 00:53:25;;;;;;;;;;;;;;;14.78;43.08;95950.63;5103565;28;19948;-73
2023/06/14 00:55:50;;;;;;;;;;;;;;;14.79;42.79;95945.09;5105292;28;20140;-70
2023/06/14 00:58:16;;;;;;;;;;;;;;;14.82;43.08;95941.13;5103409;28;19953;-70
2023/06/14 01:00:42;;;;;;;;;;;;;;;14.82;43.56;95949.88;5104436;28;19956;-70
2023/06/14 01:03:12;;;;;;;;;;;;;;;14.84;43.19;95949.59;5104716;28;19953;-70
2023/06/14 01:05:38;;;;;;;;;;;;;;;14.84;43.13;95946.94;5104904;28;19955;-71
2023/06/14 01:08:13;;;;;;;;;;;;;;;14.82;42.90;95949.88;5104634;28;19956;-69
2023/06/14 01:10:43;;;;;;;;;;;;;;;14.82;42.78;95944.59;5103536;28;19961;-76
2023/06/14 01:13:20;;;;;;;;;;;;;;;14.83;43.11;95945.38;5103206;28;19951;-72
2023/06/14 01:15:46;;;;;;;;;;;;;;;14.84;43.31;95946.16;5104661;28;19946;-72
2023/06/14 01:18:17;;;;;;;;;;;;;;;14.84;43.12;95948.81;5103276;28;20269;-72
2023/06/14 01:20:45;;;;;;;;;;;;;;;14.83;43.39;95953.31;5104493;28;19957;-72
2023/06/14 01:23:15;;;;;;;;;;;;;;;14.82;42.87;95954.34;5103693;28;20108;-72
2023/06/14 01:25:44;;;;;;;;;;;;;;;14.80;42.69;95959.06;5104661;28;19954;-72
2023/06/14 01:28:11;;;;;;;;;;;;;;;14.78;43.21;95951.44;5104380;28;19947;-71
2023/06/14 01:30:38;;;;;;;;;;;;;;;14.79;43.16;95954.84;5103325;28;19965;-70
2023/06/14 01:33:05;;;;;;;;;;;;;;;14.79;43.42;95960.94;5102901;28;19948;-70
2023/06/14 01:35:31;;;;;;;;;;;;;;;14.77;43.80;95955.09;5104323;28;19950;-71
2023/06/14 01:37:57;;;;;;;;;;;;;;;14.73;43.81;95959.31;5105577;28;19959;-70
2023/06/14 01:40:23;;;;;;;;;;;;;;;14.72;44.03;95956.91;5108221;28;19962;-70
2023/06/14 01:42:50;;;;;;;;;;;;;;;14.68;44.24;95959.28;5106954;28;19949;-70
2023/06/14 01:45:17;;;;;;;;;;;;;;;14.66;44.52;95957.94;5108359;28;19956;-70
2023/06/14 01:47:43;;;;;;;;;;;;;;;14.65;44.09;95965.06;5089880;28;19951;-77
2023/06/14 01:50:09;;;;;;;;;;;;;;;14.60;44.08;95960.56;5108156;28;20233;-70
2023/06/14 01:52:36;;;;;;;;;;;;;;;14.57;44.07;95958.44;5107594;28;19956;-70
2023/06/14 01:55:02;;;;;;;;;;;;;;;14.55;44.76;95957.91;5090262;28;19962;-70
2023/06/14 01:57:29;;;;;;;;;;;;;;;14.50;44.76;95955.19;5107464;28;19947;-70
2023/06/14 01:59:55;;;;;;;;;;;;;;;14.45;44.85;95962.25;5107615;28;19965;-70
2023/06/14 02:02:21;;;;;;;;;;;;;;;14.39;45.47;95962.25;5107719;28;19945;-71
2023/06/14 02:04:47;;;;;;;;;;;;;;;14.36;45.76;95957.50;5107850;28;20017;-70
2023/06/14 02:07:13;;;;;;;;;;;;;;;14.32;45.39;95959.03;5106801;28;20014;-73
2023/06/14 02:09:40;;;;;;;;;;;;;;;14.30;45.63;95960.31;5107729;28;19961;-76
2023/06/14 02:12:06;;;;;;;;;;;;;;;14.29;45.21;95959.53;5107766;28;19947;-76
2023/06/14 02:14:33;;;;;;;;;;;;;;;14.25;45.10;95961.09;5106364;28;19956;-76
2023/06/14 02:17:00;;;;;;;;;;;;;;;14.19;44.59;95955.00;5107660;28;19952;-76
2023/06/14 02:19:26;;;;;;;;;;;;;;;14.18;44.98;95971.06;5107689;28;19954;-76
2023/06/14 02:21:52;;;;;;;;;;;;;;;14.15;45.20;95967.09;5107292;28;19958;-77
2023/06/14 02:24:18;;;;;;;;;;;;;;;14.16;45.38;95970.53;5107569;28;19957;-71
2023/06/14 02:26:44;;;;;;;;;;;;;;;14.16;45.42;95967.88;5105861;28;19954;-76
2023/06/14 02:29:12;;;;;;;;;;;;;;;14.16;45.74;95966.03;5107182;28;19952;-77
2023/06/14 02:31:38;;;;;;;;;;;;;;;14.13;46.21;95965.72;5105963;28;19969;-77
2023/06/14 02:34:04;;;;;;;;;;;;;;;14.12;46.15;95964.16;5107465;28;19950;-77
2023/06/14 02:36:30;;;;;;;;;;;;;;;14.08;47.41;95965.72;5107370;28;19955;-77
2023/06/14 02:38:57;;;;;;;;;;;;;;;14.03;46.91;95963.81;5107259;28;19952;-76
2023/06/14 02:41:23;;;;;;;;;;;;;;;13.96;47.16;95953.50;5107124;28;19967;-75
2023/06/14 02:43:49;;;;;;;;;;;;;;;13.91;47.20;95958.72;5105845;28;19954;-76
2023/06/14 02:46:15;;;;;;;;;;;;;;;13.85;46.97;95954.44;5107120;28;19991;-71
2023/06/14 02:48:41;;;;;;;;;;;;;;;13.82;46.25;95954.94;5105663;28;19981;-71
2023/06/14 02:51:08;;;;;;;;;;;;;;;13.81;46.66;95953.34;5106535;28;20130;-71
2023/06/14 02:53:34;;;;;;;;;;;;;;;13.80;46.62;95952.56;5106565;28;20220;-71
2023/06/14 02:56:00;;;;;;;;;;;;;;;13.80;46.95;95957.03;5106591;28;19951;-71
2023/06/14 02:58:26;;;;;;;;;;;;;;;13.81;46.58;95956.78;5106914;28;19954;-70
2023/06/14 03:00:52;;;;;;;;;;;;;;;13.81;47.39;95950.72;5105187;28;19964;-73
2023/06/14 03:03:19;;;;;;;;;;;;;;;13.78;47.70;95943.31;5105231;28;19955;-77
2023/06/14 03:05:47;;;;;;;;;;;;;;;13.73;47.77;95954.63;5106533;28;19955;-77
2023/06/14 03:08:19;;;;;;;;;;;;;;;13.70;46.93;95949.81;5105252;28;20230;-77
2023/06/14 03:10:48;;;;;;;;;;;;;;;13.72;46.70;95949.59;5106789;28;19973;-77
2023/06/14 03:13:15;;;;;;;;;;;;;;;13.72;46.83;95960.91;5106522;28;19943;-77
2023/06/14 03:15:42;;;;;;;;;;;;;;;13.73;46.40;95956.44;5106013;28;19944;-77
2023/06/14 03:18:09;;;;;;;;;;;;;;;13.75;46.62;95959.63;5106574;28;19955;-76
2023/06/14 03:20:38;;;;;;;;;;;;;;;13.73;47.19;95961.69;5106616;28;20131;-73
2023/06/14 03:23:05;;;;;;;;;;;;;;;13.72;47.39;95971.44;5106455;28;20255;-76
2023/06/14 03:25:32;;;;;;;;;;;;;;;13.68;48.23;95974.84;5106217;28;19957;-77
2023/06/14 03:27:58;;;;;;;;;;;;;;;13.64;48.24;95982.44;5106285;28;20146;-76
2023/06/14 03:30:24;;;;;;;;;;;;;;;13.58;49.63;95991.34;5105102;28;19949;-76
2023/06/14 03:32:55;;;;;;;;;;;;;;;13.48;49.80;95991.22;5104684;28;19996;-77
2023/06/14 03:35:21;;;;;;;;;;;;;;;13.39;50.43;95994.28;5106129;28;19952;-77
2023/06/14 03:37:47;;;;;;;;;;;;;;;13.30;50.42;95992.34;5104719;28;19962;-72
2023/06/14 03:40:16;;;;;;;;;;;;;;;13.25;51.20;95989.63;5087587;28;19987;-70
2023/06/14 03:42:42;;;;;;;;;;;;;;;13.19;50.35;95994.84;5105553;28;19944;-71
2023/06/14 03:45:08;;;;;;;;;;;;;;;13.14;52.14;96000.03;5105688;28;20016;-70
2023/06/14 03:47:34;;;;;;;;;;;;;;;13.09;51.86;96002.59;5105887;28;19951;-71
2023/06/14 03:50:01;;;;;;;;;;;;;;;13.04;51.56;96002.56;5105587;28;19954;-70
2023/06/14 03:52:27;;;;;;;;;;;;;;;12.99;52.46;96005.09;5105528;28;20231;-70
2023/06/14 03:54:53;;;;;;;;;;;;;;;12.98;52.04;96004.31;5105298;28;19963;-70
2023/06/14 03:57:19;;;;;;;;;;;;;;;12.94;52.26;96013.75;5104354;28;19950;-70
2023/06/14 03:59:46;;;;;;;;;;;;;;;12.90;52.38;96015.25;5104416;28;19959;-70
2023/06/14 04:02:15;;;;;;;;;;;;;;;12.89;52.58;96021.56;5105199;28;19954;-70
2023/06/14 04:04:45;;;;;;;;;;;;;;;12.85;52.33;96024.91;5105556;28;19961;-71
2023/06/14 04:07:14;;;;;;;;;;;;;;;12.82;52.66;96028.84;5104269;28;19953;-70
2023/06/14 04:09:40;;;;;;;;;;;;;;;12.81;52.90;96024.63;5105000;28;19941;-70
2023/06/14 04:12:08;;;;;;;;;;;;;;;12.82;53.61;96025.41;5104605;28;19957;-70
2023/06/14 04:14:34;;;;;;;;;;;;;;;12.84;53.41;96028.59;5105515;28;19950;-77
2023/06/14 04:17:00;;;;;;;;;;;;;;;12.88;53.50;96024.44;5105428;28;19963;-72
2023/06/14 04:19:26;;;;;;;;;;;;;;;12.93;53.68;96029.75;5105062;28;19952;-72
2023/06/14 04:21:52;;;;;;;;;;;;;;;12.98;53.00;96030.63;5086711;28;20159;-72
2023/06/14 04:24:18;;;;;;;;;;;;;;;13.04;53.91;96036.78;5105402;28;19943;-71
2023/06/14 04:26:45;;;;;;;;;;;;;;;13.10;54.13;96035.81;5105044;28;20286;-72
2023/06/14 04:29:14;;;;;;;;;;;;;;;13.15;54.38;96035.84;5105062;28;19955;-72
2023/06/14 04:31:40;;;;;;;;;;;;;;;13.22;54.04;96037.50;5103652;28;20139;-76
2023/06/14 04:34:06;;;;;;;;;;;;;;;13.26;55.10;96042.03;5105156;28;20216;-70
2023/06/14 04:36:34;;;;;;;;;;;;;;;13.32;54.48;96046.38;5103600;28;19987;-70
2023/06/14 04:39:03;;;;;;;;;;;;;;;13.39;53.91;96039.06;5105291;28;19945;-70
2023/06/14 04:41:30;;;;;;;;;;;;;;;13.48;55.85;96050.00;5105166;28;19960;-69
2023/06/14 04:43:58;;;;;;;;;;;;;;;13.53;54.74;96049.25;5104789;28;19954;-70
2023/06/14 04:46:24;;;;;;;;;;;;;;;13.54;53.89;96046.38;5104608;28;19951;-70
2023/06/14 04:48:50;;;;;;;;;;;;;;;13.62;54.36;96050.41;5105058;28;20161;-70
2023/06/14 04:51:16;;;;;;;;;;;;;;;13.74;53.49;96048.44;5104682;28;19956;-76
2023/06/14 04:53:43;;;;;;;;;;;;;;;13.85;52.87;96049.31;5104913;28;19961;-69
2023/06/14 04:56:09;;;;;;;;;;;;;;;13.88;54.06;96056.75;5104708;28;19947;-69
2023/06/14 04:58:36;;;;;;;;;;;;;;;13.90;53.41;96059.13;5104826;28;20171;-70
2023/06/14 05:01:02;;;;;;;;;;;;;;;13.99;53.50;96065.56;5104665;28;19971;-69
2023/06/14 05:03:30;;;;;;;;;;;;;;;14.11;53.46;96062.75;5103311;28;19952;-70
2023/06/14 05:05:56;;;;;;;;;;;;;;;14.24;53.94;96067.63;5104217;28;19963;-70
2023/06/14 05:08:23;;;;;;;;;;;;;;;14.38;53.88;96062.72;5104980;28;20235;-70
2023/06/14 05:10:49;;;;;;;;;;;;;;;14.55;52.62;96067.88;5104362;28;19947;-76
2023/06/14 05:13:15;;;;;;;;;;;;;;;14.75;52.56;96062.00;5105391;28;19958;-72
2023/06/14 05:15:41;;;;;;;;;;;;;;;15.00;51.98;96059.50;5108701;28;20029;-71
2023/06/14 05:18:09;;;;;;;;;;;;;;;15.27;51.95;96055.19;5108583;28;19960;-72
2023/06/14 05:20:36;;;;;;;;;;;;;;;15.52;51.31;96055.28;5108463;28;20256;-73
2023/06/14 05:23:02;;;;;;;;;;;;;;;15.80;50.33;96050.63;5108837;28;19959;-72
2023/06/14 05:25:28;;;;;;;;;;;;;;;16.08;49.58;96056.50;5108637;28;19952;-72
2023/06/14 05:27:54;;;;;;;;;;;;;;;16.35;49.47;96053.63;5108576;28;20004;-77
2023/06/14 05:30:20;;;;;;;;;;;;;;;16.61;49.20;96059.75;5108682;28;19959;-70
2023/06/14 05:32:46;;;;;;;;;;;;;;;16.83;49.35;96051.53;5108533;28;19956;-70
2023/06/14 05:35:12;;;;;;;;;;;;;;;17.04;48.33;96060.22;5108550;28;19934;-69
2023/06/14 05:37:38;;;;;;;;;;;;;;;17.15;47.90;96053.84;5108460;28;20019;-70
2023/06/14 05:40:08;;;;;;;;;;;;;;;17.30;48.12;96070.75;5107462;28;20013;-69
2023/06/14 05:42:34;;;;;;;;;;;;;;;17.50;48.24;96064.63;5108266;28;20145;-70
2023/06/14 05:45:00;;;;;;;;;;;;;;;17.68;47.37;96066.66;5108024;28;19958;-70
2023/06/14 05:47:27;;;;;;;;;;;;;;;17.89;47.04;96069.22;5108345;28;19948;-70
2023/06/14 05:49:54;;;;;;;;;;;;;;;18.09;47.18;96068.34;5108020;28;19966;-69
2023/06/14 05:52:20;;;;;;;;;;;;;;;18.33;46.22;96071.91;5108049;28;20133;-69
2023/06/14 05:54:46;;;;;;;;;;;;;;;18.58;46.19;96067.44;5108193;28;20243;-70
2023/06/14 05:57:12;;;;;;;;;;;;;;;18.73;46.49;96066.53;5108049;28;19947;-69
2023/06/14 05:59:38;;;;;;;;;;;;;;;18.84;45.33;96068.06;5108168;28;20269;-70
2023/06/14 06:02:04;;;;;;;;;;;;;;;18.99;44.53;96067.91;5106526;28;19996;-69
2023/06/14 06:04:30;;;;;;;;;;;;;;;19.16;43.09;96064.03;5107455;28;19934;-76
2023/06/14 06:06:56;;;;;;;;;;;;;;;19.36;42.71;96073.66;5106794;28;19959;-72
2023/06/14 06:09:22;;;;;;;;;;;;;;;19.53;43.27;96071.34;5107683;28;19954;-72
2023/06/14 06:11:48;;;;;;;;;;;;;;;19.69;42.14;96069.28;5108022;28;19952;-72
2023/06/14 06:14:14;;;;;;;;;;;;;;;19.87;42.50;96076.53;5107839;28;19959;-72
2023/06/14 06:16:40;;;;;;;;;;;;;;;20.02;41.27;96070.19;5107477;28;19959;-72
2023/06/14 06:19:06;;;;;;;;;;;;;;;20.15;40.95;96068.69;5106269;28;19992;-72
2023/06/14 06:21:32;;;;;;;;;;;;;;;20.28;40.95;96075.16;5106340;28;19961;-77
2023/06/14 06:23:58;;;;;;;;;;;;;;;20.41;40.96;96071.78;5107118;28;19945;-74
2023/06/14 06:26:24;;;;;;;;;;;;;;;20.61;40.25;96069.91;5107641;28;19957;-73
2023/06/14 06:28:49;;;;;;;;;;;;;;;20.83;39.86;96071.94;5107425;28;19955;-72
2023/06/14 06:31:15;;;;;;;;;;;;;;;21.05;40.18;96079.28;5107353;28;19960;-72
2023/06/14 06:33:41;;;;;;;;;;;;;;;21.17;38.56;96079.59;5106235;28;19942;-72
2023/06/14 06:36:07;;;;;;;;;;;;;;;21.23;39.01;96081.09;5106171;28;19996;-72
2023/06/14 06:38:33;;;;;;;;;;;;;;;21.34;38.87;96078.25;5106892;28;19943;-72
2023/06/14 06:40:59;;;;;;;;;;;;;;;21.47;39.04;96082.81;5105618;28;19961;-71
2023/06/14 06:43:25;;;;;;;;;;;;;;;21.60;38.70;96084.69;5107230;28;19952;-74
2023/06/14 06:45:51;;;;;;;;;;;;;;;21.69;38.31;96090.91;5106802;28;19956;-74
2023/06/14 06:48:17;;;;;;;;;;;;;;;21.72;37.84;96091.41;5107002;28;19972;-74
2023/06/14 06:50:43;;;;;;;;;;;;;;;21.73;38.10;96092.97;5106857;28;19956;-73
2023/06/14 06:53:08;;;;;;;;;;;;;;;21.72;37.64;96096.75;5105498;28;19960;-73
2023/06/14 06:55:35;;;;;;;;;;;;;;;21.70;37.21;96097.03;5105405;28;20028;-73
2023/06/14 06:58:00;;;;;;;;;;;;;;;21.75;37.61;96091.59;5106999;28;19997;-74
2023/06/14 07:00:26;;;;;;;;;;;;;;;21.86;37.51;96092.19;5106793;28;20237;-77
2023/06/14 07:02:54;;;;;;;;;;;;;;;21.95;37.55;96093.06;5106871;28;19954;-77
2023/06/14 07:05:20;;;;;;;;;;;;;;;22.05;36.92;96098.19;5106559;28;20116;-77
2023/06/14 07:07:46;;;;;;;;;;;;;;;22.12;35.86;96097.78;5106946;28;19959;-76
2023/06/14 07:10:12;;;;;;;;;;;;;;;22.16;36.78;96103.31;5106871;28;19975;-77
2023/06/14 07:12:39;;;;;;;;;;;;;;;22.23;37.06;96106.38;5106801;28;20265;-77
2023/06/14 07:15:08;;;;;;;;;;;;;;;22.30;37.25;96096.09;5106314;28;19950;-77
2023/06/14 07:17:34;;;;;;;;;;;;;;;22.42;37.25;96101.66;5106538;28;19961;-77
2023/06/14 07:20:11;;;;;;;;;;;;;;;22.54;37.02;96106.47;5106265;28;19952;-71
2023/06/14 07:22:41;;;;;;;;;;;;;;;22.66;36.77;96101.38;5104943;28;19969;-75
2023/06/14 07:25:13;;;;;;;;;;;;;;;22.75;36.81;96103.34;5106492;28;20018;-74
2023/06/14 07:27:43;;;;;;;;;;;;;;;22.72;36.07;96103.94;5104936;28;19960;-74
2023/06/14 07:30:09;;;;;;;;;;;;;;;22.74;36.50;96101.75;5106341;28;19956;-74
2023/06/14 07:32:36;;;;;;;;;;;;;;;22.80;36.35;96112.00;5105992;28;19956;-74
2023/06/14 07:35:02;;;;;;;;;;;;;;;22.88;36.33;96116.63;5105749;28;19967;-74
2023/06/14 07:37:28;;;;;;;;;;;;;;;22.94;36.43;96122.63;5106091;28;19948;-77
2023/06/14 07:39:54;;;;;;;;;;;;;;;23.01;35.67;96115.00;5105870;28;20249;-74
2023/06/14 07:42:20;;;;;;;;;;;;;;;23.03;35.61;96117.38;5104402;28;19957;-74
2023/06/14 07:44:46;;;;;;;;;;;;;;;23.06;36.02;96119.44;5106114;28;19963;-74
2023/06/14 07:47:12;;;;;;;;;;;;;;;22.99;35.62;96114.47;5105865;28;19958;-75
2023/06/14 07:49:38;;;;;;;;;;;;;;;22.99;35.66;96119.81;5105935;28;19953;-74
2023/06/14 07:52:04;;;;;;;;;;;;;;;23.08;35.51;96117.25;5105862;28;19992;-75
2023/06/14 07:54:32;;;;;;;;;;;;;;;23.12;35.94;96120.91;5105849;28;19961;-76
2023/06/14 07:57:00;;;;;;;;;;;;;;;23.13;35.76;96116.34;5087244;28;19954;-73
2023/06/14 07:59:26;;;;;;;;;;;;;;;23.17;35.66;96114.63;5087848;28;19961;-72
2023/06/14 08:01:52;;;;;;;;;;;;;;;23.27;36.68;96119.72;5087645;28;19960;-73
2023/06/14 08:04:18;;;;;;;;;;;;;;;23.38;35.54;96118.34;5104605;28;20001;-73
2023/06/14 08:06:45;;;;;;;;;;;;;;;23.45;34.64;96117.91;5105778;28;19956;-73
2023/06/14 08:09:12;;;;;;;;;;;;;;;23.52;34.85;96123.59;5104081;28;19952;-73
2023/06/14 08:11:38;;;;;;;;;;;;;;;23.51;33.38;96122.78;5105507;28;19968;-73
2023/06/14 08:14:04;;;;;;;;;;;;;;;23.56;33.96;96113.06;5104325;28;20188;-71
2023/06/14 08:16:30;;;;;;;;;;;;;;;23.69;34.68;96118.31;5087174;28;20256;-75
2023/06/14 08:18:55;;;;;;;;;;;;;;;23.82;34.95;96122.00;5104176;28;19959;-75
2023/06/14 08:21:21;;;;;;;;;;;;;;;23.97;34.67;96126.13;5105488;28;20259;-75
2023/06/14 08:23:47;;;;;;;;;;;;;;;24.03;33.79;96118.75;5105324;28;20254;-75
2023/06/14 08:26:13;;;;;;;;;;;;;;;24.11;32.54;96120.66;5104784;28;19948;-76
2023/06/14 08:28:39;;;;;;;;;;;;;;;24.09;32.80;96128.22;5105219;28;19956;-75
2023/06/14 08:31:05;;;;;;;;;;;;;;;24.07;33.03;96125.06;5105072;28;19951;-79
2023/06/14 08:33:34;;;;;;;;;;;;;;;24.03;31.33;96126.78;5104833;28;20212;-76
2023/06/14 08:36:00;;;;;;;;;;;;;;;23.99;32.53;96125.81;5103555;28;19953;-74
2023/06/14 08:38:26;;;;;;;;;;;;;;;23.98;31.23;96118.88;5105072;28;19987;-76
2023/06/14 08:40:55;;;;;;;;;;;;;;;24.10;32.04;96124.41;5103504;28;19950;-74
2023/06/14 08:43:21;;;;;;;;;;;;;;;24.24;31.83;96133.09;5104778;28;19954;-76
2023/06/14 08:45:48;;;;;;;;;;;;;;;24.33;32.42;96126.97;5103777;28;19990;-75
2023/06/14 08:48:17;;;;;;;;;;;;;;;24.36;31.88;96127.13;5104946;28;19959;-74
2023/06/14 08:50:43;;;;;;;;;;;;;;;24.38;31.47;96142.88;5104919;28;20164;-73
2023/06/14 08:53:11;;;;;;;;;;;;;;;24.40;30.91;96130.78;5086315;28;19962;-73
2023/06/14 08:55:39;;;;;;;;;;;;;;;24.45;30.12;96127.94;5086988;28;19947;-74
2023/06/14 08:58:05;;;;;;;;;;;;;;;24.44;32.28;96145.13;5087008;28;20146;-73
2023/06/14 09:00:32;;;;;;;;;;;;;;;24.47;31.48;96144.47;5103830;28;19964;-73
2023/06/14 09:02:58;;;;;;;;;;;;;;;24.48;30.85;96151.44;5104895;28;19965;-73
2023/06/14 09:05:26;;;;;;;;;;;;;;;24.22;30.17;96142.56;5105293;28;20025;-73
2023/06/14 09:07:52;;;;;;;;;;;;;;;24.19;30.25;96146.66;5086356;28;19957;-71
2023/06/14 09:10:18;;;;;;;;;;;;;;;23.90;29.11;96136.53;5103411;28;19953;-79
2023/06/14 09:12:45;;;;;;;;;;;;;;;23.95;30.49;96131.00;5104260;28;19961;-76
2023/06/14 09:15:11;;;;;;;;;;;;;;;24.00;32.16;96135.41;5103402;28;19948;-75
2023/06/14 09:17:38;;;;;;;;;;;;;;;24.14;32.18;96135.31;5104869;28;19975;-76
2023/06/14 09:20:17;;;;;;;;;;;;;;;24.37;31.87;96138.66;5104614;28;19957;-76
2023/06/14 09:22:43;;;;;;;;;;;;;;;24.59;31.07;96130.50;5104568;28;19965;-76
2023/06/14 09:25:09;;;;;;;;;;;;;;;24.67;31.87;96137.75;5104773;28;19948;-74
2023/06/14 09:27:35;;;;;;;;;;;;;;;24.81;31.54;96142.94;5104443;28;19958;-72
2023/06/14 09:30:05;;;;;;;;;;;;;;;24.99;31.47;96140.22;5104692;28;20123;-72
2023/06/14 09:32:30;;;;;;;;;;;;;;;25.09;31.20;96139.88;5102823;28;19958;-72
2023/06/14 09:34:56;;;;;;;;;;;;;;;25.19;31.16;96133.41;5104626;28;20200;-72
2023/06/14 09:37:29;;;;;;;;;;;;;;;25.25;31.01;96143.66;5103016;28;20215;-71
2023/06/14 09:39:55;;;;;;;;;;;;;;;25.36;30.56;96146.00;5105167;28;20119;-72
2023/06/14 09:42:25;;;;;;;;;;;;;;;25.39;30.43;96143.47;5102317;28;21068;-71
2023/06/14 09:44:52;;;;;;;;;;;;;;;25.45;29.92;96149.44;5086099;28;19955;-73
2023/06/14 09:47:18;;;;;;;;;;;;;;;25.43;28.91;96146.28;5103480;28;19970;-76
2023/06/14 09:49:44;;;;;;;;;;;;;;;25.31;29.96;96141.63;5103872;28;19966;-76
2023/06/14 09:52:11;;;;;;;;;;;;;;;25.24;30.20;96152.03;5103248;28;19962;-76
2023/06/14 09:54:42;;;;;;;;;;;;;;;25.21;30.08;96150.78;5103160;28;19962;-76
2023/06/14 09:57:12;;;;;;;;;;;;;;;25.21;29.77;96153.47;5102701;28;20136;-77
2023/06/14 09:59:42;;;;;;;;;;;;;;;25.27;27.73;96156.78;5104884;28;20142;-78
2023/06/14 10:02:18;;;;;;;;;;;;;;;25.36;28.97;96141.44;5107939;28;19968;-75
2023/06/14 10:04:46;;;;;;;;;;;;;;;25.49;30.04;96151.19;5108040;28;19954;-76
2023/06/14 10:07:18;;;;;;;;;;;;;;;25.45;29.07;96144.06;5107970;28;19963;-79
2023/06/14 10:09:49;;;;;;;;;;;;;;;25.43;29.37;96141.75;5103921;28;20242;-80
2023/06/14 10:12:21;;;;;;;;;;;;;;;25.50;29.83;96141.25;5107825;28;19959;-79
2023/06/14 10:14:53;;;;;;;;;;;;;;;25.67;29.44;96146.53;5106672;28;19975;-79
2023/06/14 10:17:33;;;;;;;;;;;;;;;25.78;29.49;96140.81;5107767;28;19958;-79
2023/06/14 10:20:05;;;;;;;;;;;;;;;25.70;30.09;96134.34;5107816;28;19948;-79
2023/06/14 10:22:37;;;;;;;;;;;;;;;25.73;28.80;96145.25;5107483;28;20129;-73
2023/06/14 10:25:07;;;;;;;;;;;;;;;25.83;29.44;96141.41;5106401;28;19961;-72
2023/06/14 10:27:35;;;;;;;;;;;;;;;25.66;27.46;96149.53;5107554;28;19959;-72
2023/06/14 10:30:07;;;;;;;;;;;;;;;25.52;28.64;96152.44;5105793;28;19946;-72
2023/06/14 10:32:33;;;;;;;;;;;;;;;25.49;28.28;96147.69;5105940;28;19975;-72
2023/06/14 10:35:00;;;;;;;;;;;;;;;25.65;27.56;96138.00;5107619;28;19950;-72
2023/06/14 10:37:26;;;;;;;;;;;;;;;25.74;27.07;96140.66;5106207;28;19977;-71
2023/06/14 10:39:53;;;;;;;;;;;;;;;25.72;28.43;96148.25;5106179;28;20111;-73
2023/06/14 10:42:22;;;;;;;;;;;;;;;25.95;29.45;96146.09;5105750;28;19971;-72
2023/06/14 10:44:52;;;;;;;;;;;;;;;26.11;28.70;96141.75;5107002;28;19949;-76
2023/06/14 10:47:23;;;;;;;;;;;;;;;26.21;28.06;96145.97;5107043;28;19961;-76
2023/06/14 10:49:51;;;;;;;;;;;;;;;26.33;28.16;96154.13;5107224;28;19960;-76
2023/06/14 10:52:20;;;;;;;;;;;;;;;26.50;27.89;96139.75;5107116;28;19959;-77
2023/06/14 10:55:05;;;;;;;;;;;;;;;26.71;27.34;96125.53;5106086;28;19947;-77
2023/06/14 10:57:32;;;;;;;;;;;;;;;26.83;26.80;96128.25;5106061;28;20235;-77
2023/06/14 10:59:58;;;;;;;;;;;;;;;26.92;26.17;96134.38;5105661;28;19958;-76
2023/06/14 11:02:45;;;;;;;;;;;;;;;26.97;27.56;96133.38;5105644;28;19972;-81
2023/06/14 11:05:14;;;;;;;;;;;;;;;26.96;27.21;96147.16;5105467;28;19960;-80
2023/06/14 11:07:43;;;;;;;;;;;;;;;26.87;27.21;96145.31;5106687;28;19953;-80
2023/06/14 11:10:28;;;;;;;;;;;;;;;26.89;25.94;96137.69;5105778;28;20101;-80
2023/06/14 11:12:54;;;;;;;;;;;;;;;26.51;24.78;96140.53;5106976;28;19937;-80
2023/06/14 11:15:20;;;;;;;;;;;;;;;26.37;26.34;96138.09;5105670;28;19970;-81
2023/06/14 11:17:57;;;;;;;;;;;;;;;26.57;27.39;96143.84;5106636;28;19951;-72
2023/06/14 11:20:27;;;;;;;;;;;;;;;26.82;26.91;96134.78;5106511;28;19959;-80
2023/06/14 11:22:53;;;;;;;;;;;;;;;27.07;26.70;96149.09;5106532;28;19966;-80
2023/06/14 11:25:20;;;;;;;;;;;;;;;27.32;25.63;96131.13;5105043;28;20146;-79
2023/06/14 11:27:46;;;;;;;;;;;;;;;27.51;25.97;96132.53;5106193;28;19949;-81
2023/06/14 11:30:13;;;;;;;;;;;;;;;27.74;26.01;96130.97;5105121;28;19953;-80
2023/06/14 11:32:39;;;;;;;;;;;;;;;27.86;24.47;96130.19;5104822;28;19964;-80
2023/06/14 11:35:05;;;;;;;;;;;;;;;27.76;22.78;96135.22;5104871;28;19958;-77
2023/06/14 11:37:34;;;;;;;;;;;;;;;27.84;24.81;96126.22;5106164;28;19952;-72
2023/06/14 11:40:01;;;;;;;;;;;;;;;27.93;25.53;96124.25;5105006;28;19954;-74
2023/06/14 11:42:27;;;;;;;;;;;;;;;27.89;25.24;96137.59;5106001;28;19960;-75
2023/06/14 11:44:53;;;;;;;;;;;;;;;27.97;25.71;96125.16;5104980;28;19966;-74
2023/06/14 11:47:19;;;;;;;;;;;;;;;28.05;25.17;96120.75;5087542;28;19959;-74
2023/06/14 11:49:46;;;;;;;;;;;;;;;27.97;25.16;96124.34;5106092;28;19956;-74
2023/06/14 11:52:12;;;;;;;;;;;;;;;27.76;23.23;96133.31;5104311;28;19965;-74
2023/06/14 11:54:40;;;;;;;;;;;;;;;27.66;24.86;96129.16;5104613;28;20145;-74
2023/06/14 11:57:07;;;;;;;;;;;;;;;27.61;23.71;96129.34;5104510;28;19964;-74
2023/06/14 11:59:38;;;;;;;;;;;;;;;27.72;24.29;96122.44;5104349;28;19967;-74
2023/06/14 12:02:04;;;;;;;;;;;;;;;27.91;24.88;96123.81;5104998;28;19960;-74
2023/06/14 12:04:30;;;;;;;;;;;;;;;28.04;24.24;96128.06;5104262;28;20195;-74
2023/06/14 12:06:57;;;;;;;;;;;;;;;27.87;24.77;96118.28;5104704;28;19944;-74
2023/06/14 12:09:25;;;;;;;;;;;;;;;27.84;24.90;96118.94;5104496;28;19971;-73
2023/06/14 12:11:59;;;;;;;;;;;;;;;27.38;24.12;96120.91;5104433;28;19976;-73
2023/06/14 12:14:29;;;;;;;;;;;;;;;26.99;24.94;96130.34;5087502;28;20146;-73
2023/06/14 12:17:03;;;;;;;;;;;;;;;26.99;25.34;96127.66;5103928;28;19955;-73
2023/06/14 12:19:29;;;;;;;;;;;;;;;27.13;24.86;96120.06;5104221;28;20241;-74
2023/06/14 12:21:58;;;;;;;;;;;;;;;26.99;24.95;96119.59;5103335;28;19964;-73
2023/06/14 12:24:27;;;;;;;;;;;;;;;27.05;24.14;96123.66;5105252;28;19951;-72
2023/06/14 12:26:53;;;;;;;;;;;;;;;27.21;25.75;96121.88;5105268;28;20124;-73
2023/06/14 12:29:19;;;;;;;;;;;;;;;27.40;26.32;96126.75;5105162;28;20098;-73
2023/06/14 12:31:45;;;;;;;;;;;;;;;27.49;24.88;96119.38;5105321;28;19966;-77
2023/06/14 12:34:11;;;;;;;;;;;;;;;27.57;25.00;96114.22;5104078;28;19988;-74
2023/06/14 12:36:44;;;;;;;;;;;;;;;27.68;25.74;96115.34;5105065;28;19956;-73
2023/06/14 12:39:10;;;;;;;;;;;;;;;27.53;23.80;96112.19;5105205;28;19971;-74
2023/06/14 12:41:36;;;;;;;;;;;;;;;27.39;24.84;96103.66;5104421;28;20251;-73
2023/06/14 12:44:05;;;;;;;;;;;;;;;27.29;25.12;96104.88;5104778;28;20150;-73
2023/06/14 12:46:32;;;;;;;;;;;;;;;27.36;25.37;96108.91;5104825;28;19952;-73
2023/06/14 12:48:58;;;;;;;;;;;;;;;27.16;25.78;96116.72;5103679;28;19954;-73